Time;durP1;ratioP1;P1;durP2;ratioP2;P2;SDS_P1;SDS_P2;PMS_P1;PMS_P2;Temp;Humidity;BMP_temperature;BMP_pressure;BME280_temperature;BME280_humidity;BME280_pressure;Samples;Min_cycle;Max_cycle;Signal;HPM_P1;HPM_P2
2023/09/11 00:00:48;;;;;;;12.48;3.80;;;;;;;15.57;100.00;63609.34;4812995;29;20278;-75
2023/09/11 00:03:17;;;;;;;4.57;2.90;;;;;;;15.60;100.00;63607.34;4817278;29;20289;-76
2023/09/11 00:05:44;;;;;;;3.08;2.88;;;;;;;15.56;100.00;63605.75;4810395;29;20232;-76
2023/09/11 00:08:11;;;;;;;4.32;3.13;;;;;;;15.51;100.00;63603.63;4810809;29;20245;-75
2023/09/11 00:10:38;;;;;;;5.80;3.50;;;;;;;15.46;100.00;63595.84;4814647;29;20328;-77
2023/09/11 00:13:05;;;;;;;5.47;3.78;;;;;;;15.47;100.00;63598.94;4813001;29;20212;-75
2023/09/11 00:15:32;;;;;;;5.78;2.95;;;;;;;15.45;100.00;63594.81;4813823;29;20222;-76
2023/09/11 00:18:00;;;;;;;6.90;3.20;;;;;;;15.38;100.00;63587.00;4799837;29;20210;-76
2023/09/11 00:20:28;;;;;;;4.25;3.33;;;;;;;15.37;100.00;63585.97;4808702;29;20230;-77
2023/09/11 00:22:55;;;;;;;3.55;2.85;;;;;;;15.45;100.00;63591.72;4799060;29;20213;-76
2023/09/11 00:25:22;;;;;;;3.38;2.95;;;;;;;15.36;100.00;63587.50;4809258;29;20548;-77
2023/09/11 00:27:49;;;;;;;3.92;2.90;;;;;;;15.33;100.00;63584.91;4812134;29;20237;-77
2023/09/11 00:30:16;;;;;;;6.93;2.60;;;;;;;15.21;100.00;63569.88;4823674;29;20251;-75
2023/09/11 00:32:43;;;;;;;7.70;3.13;;;;;;;15.21;100.00;63575.00;4816009;29;20231;-75
2023/09/11 00:35:10;;;;;;;3.83;2.63;;;;;;;15.19;100.00;63572.38;4808954;29;20312;-75
2023/09/11 00:37:38;;;;;;;3.05;2.50;;;;;;;15.25;100.00;63576.59;4814007;29;20236;-76
2023/09/11 00:40:07;;;;;;;2.38;2.17;;;;;;;15.28;100.00;63571.47;4817536;29;20542;-74
2023/09/11 00:42:34;;;;;;;4.78;2.67;;;;;;;15.31;100.00;63582.81;4817261;29;20391;-77
2023/09/11 00:45:00;;;;;;;2.80;2.60;;;;;;;15.26;100.00;63575.06;4808474;29;20231;-77
2023/09/11 00:47:27;;;;;;;4.38;3.00;;;;;;;15.22;100.00;63573.47;4819900;29;20308;-75
2023/09/11 00:49:56;;;;;;;3.63;2.60;;;;;;;15.24;100.00;63572.97;4811081;29;20297;-75
2023/09/11 00:52:24;;;;;;;4.47;3.00;;;;;;;15.28;100.00;63574.56;4816003;29;20229;-76
2023/09/11 00:54:55;;;;;;;3.72;2.60;;;;;;;15.32;100.00;63581.31;4814752;29;20236;-77
2023/09/11 00:57:23;;;;;;;5.28;2.63;;;;;;;15.41;100.00;63595.28;4813194;29;20207;-76
2023/09/11 00:59:50;;;;;;;4.30;2.80;;;;;;;15.38;100.00;63592.66;4817590;29;20230;-76
2023/09/11 01:02:18;;;;;;;2.80;2.33;;;;;;;15.27;100.00;63573.03;4801100;29;20220;-77
2023/09/11 01:04:46;;;;;;;5.22;3.00;;;;;;;15.33;100.00;63592.06;4811482;29;20226;-76
2023/09/11 01:07:13;;;;;;;4.80;2.50;;;;;;;15.33;100.00;63587.47;4812536;29;20241;-75
2023/09/11 01:09:40;;;;;;;3.08;2.70;;;;;;;15.26;100.00;63577.63;4816530;29;20235;-75
2023/09/11 01:12:09;;;;;;;5.07;3.15;;;;;;;15.21;100.00;63571.91;4806915;29;20291;-76
2023/09/11 01:14:38;;;;;;;3.75;3.03;;;;;;;15.17;100.00;63565.69;4815008;29;20282;-76
2023/09/11 01:17:12;;;;;;;4.45;2.85;;;;;;;15.21;100.00;63567.31;4813483;29;20217;-75
2023/09/11 01:19:59;;;;;;;4.07;3.38;;;;;;;15.17;100.00;63570.84;4811573;29;20222;-75
2023/09/11 01:22:41;;;;;;;4.47;3.33;;;;;;;15.06;100.00;63554.78;4807419;29;20221;-74
2023/09/11 01:25:38;;;;;;;3.83;3.53;;;;;;;15.06;100.00;63557.34;4809446;29;20279;-75
2023/09/11 01:28:29;;;;;;;4.93;3.72;;;;;;;14.99;100.00;63550.09;4814646;29;20295;-75
2023/09/11 01:30:59;;;;;;;4.13;3.20;;;;;;;14.90;100.00;63540.75;4812550;29;20392;-75
2023/09/11 01:33:26;;;;;;;3.60;3.30;;;;;;;14.86;100.00;63536.56;4810725;29;20287;-76
2023/09/11 01:35:53;;;;;;;3.80;3.00;;;;;;;14.61;100.00;63504.97;4814663;29;20424;-75
2023/09/11 01:38:20;;;;;;;12.30;3.88;;;;;;;14.60;100.00;63503.94;4819902;29;20206;-75
2023/09/11 01:40:52;;;;;;;5.93;3.15;;;;;;;14.60;100.00;63506.50;4815778;29;20383;-76
2023/09/11 01:43:20;;;;;;;3.60;3.40;;;;;;;14.41;100.00;63486.75;4816575;29;20210;-76
2023/09/11 01:45:49;;;;;;;5.57;3.40;;;;;;;14.56;100.00;63499.78;4810926;29;20246;-75
2023/09/11 01:48:17;;;;;;;4.88;3.35;;;;;;;14.47;100.00;63492.97;4800996;29;20269;-74
2023/09/11 01:50:45;;;;;;;3.25;3.08;;;;;;;14.42;100.00;63490.34;4804187;29;20227;-75
2023/09/11 01:53:12;;;;;;;3.13;2.92;;;;;;;14.36;100.00;63481.56;4806115;29;20210;-75
2023/09/11 01:55:39;;;;;;;4.93;3.03;;;;;;;14.32;100.00;63475.38;4805875;29;20242;-75
2023/09/11 01:58:07;;;;;;;4.30;3.17;;;;;;;14.27;100.00;63474.78;4806568;29;20214;-75
2023/09/11 02:00:33;;;;;;;3.70;3.50;;;;;;;14.18;100.00;63465.94;4818486;29;20241;-76
2023/09/11 02:03:01;;;;;;;6.85;3.15;;;;;;;14.17;100.00;63467.44;4809693;29;20214;-76
2023/09/11 02:05:30;;;;;;;5.00;2.95;;;;;;;14.11;100.00;63458.16;4821140;29;20535;-75
2023/09/11 02:07:57;;;;;;;4.15;3.72;;;;;;;14.06;100.00;63450.91;4812527;29;20283;-75
2023/09/11 02:10:23;;;;;;;7.22;3.60;;;;;;;14.01;100.00;63445.72;4814114;29;20230;-76
2023/09/11 02:12:50;;;;;;;4.85;3.40;;;;;;;13.96;100.00;63445.63;4808894;29;20217;-75
2023/09/11 02:15:17;;;;;;;8.88;3.60;;;;;;;13.88;100.00;63437.34;4800557;29;20249;-75
2023/09/11 02:17:44;;;;;;;3.90;3.20;;;;;;;13.90;100.00;63436.88;4820064;29;20523;-75
2023/09/11 02:20:11;;;;;;;6.32;3.45;;;;;;;13.85;100.00;63429.13;4817762;29;20428;-75
2023/09/11 02:22:39;;;;;;;4.18;3.83;;;;;;;13.81;100.00;63427.50;4818650;29;20218;-75
2023/09/11 02:25:07;;;;;;;6.72;3.50;;;;;;;13.79;100.00;63425.97;4809101;29;20270;-76
2023/09/11 02:27:34;;;;;;;3.42;3.22;;;;;;;13.74;100.00;63418.22;4838430;29;20455;-74
2023/09/11 02:30:01;;;;;;;5.82;3.67;;;;;;;13.67;100.00;63416.06;4819182;29;20400;-77
2023/09/11 02:32:28;;;;;;;3.67;3.33;;;;;;;13.68;100.00;63414.53;4812848;29;20213;-76
2023/09/11 02:34:55;;;;;;;10.20;3.78;;;;;;;13.64;100.00;63409.88;4810127;29;20230;-75
2023/09/11 02:37:22;;;;;;;4.63;3.92;;;;;;;13.62;100.00;63403.19;4814434;29;20259;-75
2023/09/11 02:39:50;;;;;;;4.25;3.50;;;;;;;13.59;100.00;63402.13;4800829;30;20234;-76
2023/09/11 02:42:17;;;;;;;3.80;3.50;;;;;;;13.58;100.00;63403.66;4800132;29;20214;-74
2023/09/11 02:44:44;;;;;;;5.22;3.42;;;;;;;13.55;100.00;63400.53;4816762;29;20230;-76
2023/09/11 02:47:11;;;;;;;4.75;4.00;;;;;;;13.55;100.00;63398.50;4815158;29;20255;-75
2023/09/11 02:49:38;;;;;;;9.40;4.57;;;;;;;13.56;100.00;63393.91;4807312;29;20361;-77
2023/09/11 02:52:05;;;;;;;7.63;4.55;;;;;;;13.53;100.00;63393.84;4808274;29;20211;-76
2023/09/11 02:54:32;;;;;;;6.80;3.83;;;;;;;13.52;100.00;63397.94;4817561;29;20214;-76
2023/09/11 02:57:01;;;;;;;4.32;3.78;;;;;;;13.49;100.00;63396.88;4814893;29;20210;-76
2023/09/11 02:59:28;;;;;;;4.28;3.95;;;;;;;13.50;100.00;63390.75;4818039;29;20207;-77
2023/09/11 03:01:54;;;;;;;5.18;3.88;;;;;;;13.47;100.00;63394.78;4817398;29;20254;-75
2023/09/11 03:04:22;;;;;;;4.03;3.50;;;;;;;13.45;100.00;63390.69;4816223;29;20564;-75
2023/09/11 03:06:48;;;;;;;3.60;3.28;;;;;;;13.41;100.00;63383.44;4807791;29;20215;-75
2023/09/11 03:09:16;;;;;;;5.82;3.67;;;;;;;13.35;100.00;63377.75;4799396;29;20288;-75
2023/09/11 03:11:43;;;;;;;5.35;3.85;;;;;;;13.37;100.00;63379.31;4813810;29;20280;-75
2023/09/11 03:14:13;;;;;;;6.18;3.90;;;;;;;13.30;100.00;63375.13;4815282;29;20221;-76
2023/09/11 03:16:43;;;;;;;4.13;3.40;;;;;;;13.29;100.00;63368.44;4803604;29;20261;-75
2023/09/11 03:19:10;;;;;;;4.03;3.60;;;;;;;13.25;100.00;63364.28;4816791;29;20240;-74
2023/09/11 03:21:37;;;;;;;6.25;4.07;;;;;;;13.24;100.00;63363.25;4818180;29;20476;-75
2023/09/11 03:24:04;;;;;;;11.82;4.55;;;;;;;13.29;100.00;63373.53;4815893;29;20479;-75
2023/09/11 03:26:32;;;;;;;6.90;4.05;;;;;;;13.25;100.00;63364.81;4817408;29;20232;-76
2023/09/11 03:28:58;;;;;;;8.40;4.32;;;;;;;13.22;100.00;63364.25;4811049;29;20276;-74
2023/09/11 03:31:27;;;;;;;7.65;4.07;;;;;;;13.37;100.00;63376.75;4812470;29;20252;-75
2023/09/11 03:33:54;;;;;;;4.60;3.90;;;;;;;13.31;100.00;63373.59;4819798;29;20246;-75
2023/09/11 03:36:21;;;;;;;4.40;4.05;;;;;;;13.28;100.00;63373.03;4822019;29;20240;-75
2023/09/11 03:38:47;;;;;;;3.92;3.58;;;;;;;13.27;100.00;63372.00;4816629;29;20213;-76
2023/09/11 03:41:15;;;;;;;4.53;4.13;;;;;;;13.27;100.00;63369.44;4817309;29;20237;-76
2023/09/11 03:43:41;;;;;;;4.40;4.10;;;;;;;13.23;100.00;63360.19;4806461;29;20240;-75
2023/09/11 03:46:08;;;;;;;5.10;3.80;;;;;;;13.23;100.00;63362.75;4814753;29;20252;-75
2023/09/11 03:48:37;;;;;;;6.72;3.90;;;;;;;13.24;100.00;63363.25;4817884;29;20248;-76
2023/09/11 03:51:03;;;;;;;4.80;4.07;;;;;;;13.24;100.00;63363.75;4816895;29;20225;-75
2023/09/11 03:53:30;;;;;;;4.38;4.00;;;;;;;13.22;100.00;63366.31;4816094;29;20285;-77
2023/09/11 03:55:57;;;;;;;4.82;3.83;;;;;;;13.26;100.00;63365.84;4811864;29;20230;-75
2023/09/11 03:58:24;;;;;;;4.75;3.92;;;;;;;13.25;100.00;63364.81;4817684;29;20233;-76
2023/09/11 04:00:51;;;;;;;5.97;4.80;;;;;;;13.23;100.00;63364.78;4811210;29;20231;-76
2023/09/11 04:03:18;;;;;;;4.50;4.07;;;;;;;13.24;100.00;63368.34;4816266;29;20209;-74
2023/09/11 04:05:46;;;;;;;7.47;4.45;;;;;;;13.28;100.00;63367.94;4814189;29;20233;-76
2023/09/11 04:08:13;;;;;;;6.68;4.40;;;;;;;13.22;100.00;63361.19;4807817;29;20234;-75
2023/09/11 04:10:40;;;;;;;7.43;5.03;;;;;;;13.22;100.00;63363.75;4812121;29;20230;-77
2023/09/11 04:13:07;;;;;;;6.13;4.35;;;;;;;13.28;100.00;63370.47;4799466;29;20215;-75
2023/09/11 04:15:33;;;;;;;5.38;3.65;;;;;;;13.18;100.00;63357.56;4805278;29;20226;-75
2023/09/11 04:18:00;;;;;;;4.32;3.80;;;;;;;13.20;100.00;63354.50;4800909;29;20259;-75
2023/09/11 04:20:32;;;;;;;4.05;3.63;;;;;;;13.19;100.00;63360.63;4811311;29;20267;-75
2023/09/11 04:23:01;;;;;;;4.68;3.50;;;;;;;13.23;100.00;63362.75;4817173;29;20214;-75
2023/09/11 04:25:28;;;;;;;3.63;3.42;;;;;;;13.20;100.00;63362.16;4824759;29;20538;-77
2023/09/11 04:27:55;;;;;;;4.10;3.70;;;;;;;13.11;100.00;63350.28;4812921;29;20215;-74
2023/09/11 04:30:23;;;;;;;4.22;3.53;;;;;;;13.27;100.00;63366.88;4813185;29;20234;-74
2023/09/11 04:32:50;;;;;;;5.57;4.05;;;;;;;13.32;100.00;63371.56;4809683;29;20210;-75
2023/09/11 04:35:18;;;;;;;11.40;4.20;;;;;;;13.40;100.00;63379.84;4824795;29;20226;-74
2023/09/11 04:37:50;;;;;;;4.38;3.97;;;;;;;13.46;100.00;63389.16;4814051;29;20206;-76
2023/09/11 04:40:19;;;;;;;3.90;3.60;;;;;;;13.53;100.00;63398.47;4814784;29;20273;-76
2023/09/11 04:42:47;;;;;;;4.72;4.10;;;;;;;13.59;100.00;63402.66;4815064;29;20243;-76
2023/09/11 04:45:16;;;;;;;11.70;3.92;;;;;;;13.72;100.00;63421.25;4800641;29;20276;-76
2023/09/11 04:47:43;;;;;;;8.57;3.72;;;;;;;13.80;100.00;63423.94;4799134;29;20214;-76
2023/09/11 04:50:14;;;;;;;3.95;3.65;;;;;;;13.88;100.00;63432.75;4808168;29;20250;-74
2023/09/11 04:52:41;;;;;;;3.92;3.58;;;;;;;13.99;100.00;63446.22;4817337;29;20222;-74
2023/09/11 04:55:08;;;;;;;3.97;3.67;;;;;;;14.10;100.00;63454.56;4822950;29;20255;-75
2023/09/11 04:57:37;;;;;;;5.60;3.53;;;;;;;14.19;100.00;63466.44;4818335;29;20267;-74
2023/09/11 05:00:09;;;;;;;6.15;3.08;;;;;;;14.32;100.00;63477.41;4814227;29;20233;-77
2023/09/11 05:02:36;;;;;;;6.47;3.20;;;;;;;14.31;100.00;63476.88;4814855;29;20223;-75
2023/09/11 05:05:04;;;;;;;2.83;2.63;;;;;;;14.41;100.00;63484.19;4818315;29;20581;-74
2023/09/11 05:07:31;;;;;;;3.28;2.50;;;;;;;14.35;100.00;63483.59;4822319;29;20536;-78
2023/09/11 05:09:59;;;;;;;3.10;2.90;;;;;;;14.46;100.00;63494.50;4820645;29;20314;-74
2023/09/11 05:12:26;;;;;;;4.25;2.30;;;;;;;14.55;100.00;63501.81;4823623;29;20494;-77
2023/09/11 05:14:55;;;;;;;3.70;2.63;;;;;;;14.60;100.00;63501.88;4812883;29;20230;-75
2023/09/11 05:17:22;;;;;;;5.18;2.47;;;;;;;14.67;100.00;63513.75;4818158;29;20221;-73
2023/09/11 05:19:49;;;;;;;4.50;2.83;;;;;;;14.84;100.00;63534.00;4819792;29;20245;-76
2023/09/11 05:22:16;;;;;;;3.05;2.85;;;;;;;15.05;100.00;63553.22;4818803;29;20206;-75
2023/09/11 05:24:43;;;;;;;3.22;2.47;;;;;;;15.12;100.00;63563.06;4813215;29;20233;-76
2023/09/11 05:27:10;;;;;;;5.25;3.05;;;;;;;15.02;100.00;63548.06;4815628;29;20211;-75
2023/09/11 05:29:37;;;;;;;4.20;2.78;;;;;;;15.11;100.00;63561.50;4822988;29;20253;-74
2023/09/11 05:32:06;;;;;;;5.55;2.83;;;;;;;15.12;100.00;63560.00;4809553;29;20220;-75
2023/09/11 05:34:32;;;;;;;6.28;2.55;;;;;;;15.29;100.00;63582.78;4819850;29;20220;-75
2023/09/11 05:36:59;;;;;;;2.95;2.50;;;;;;;15.47;100.00;63591.78;4817894;29;20218;-76
2023/09/11 05:39:26;;;;;;;2.58;2.40;;;;;;;15.59;100.00;63606.81;4819447;29;20206;-76
2023/09/11 05:41:53;;;;;;;3.55;2.45;;;;;;;15.74;100.00;63622.41;4816417;29;20530;-75
2023/09/11 05:44:20;;;;;;;3.22;2.90;;;;;;;15.81;100.00;63627.13;4815472;29;20575;-76
2023/09/11 05:46:47;;;;;;;4.60;2.70;;;;;;;15.89;100.00;63637.50;4818435;29;20245;-75
2023/09/11 05:49:15;;;;;;;3.83;3.00;;;;;;;15.84;100.00;63630.22;4807046;29;20250;-74
2023/09/11 05:51:43;;;;;;;5.95;2.90;;;;;;;15.77;100.00;63628.09;4807492;29;20229;-74
2023/09/11 05:54:11;;;;;;;10.35;3.25;;;;;;;15.79;100.00;63627.09;4816825;29;20262;-74
2023/09/11 05:56:38;;;;;;;5.68;3.40;;;;;;;15.91;100.00;63637.00;4817898;29;20229;-74
2023/09/11 05:59:05;;;;;;;4.55;3.65;;;;;;;16.02;100.00;63646.38;4819443;29;20213;-74
2023/09/11 06:01:32;;;;;;;3.40;2.90;;;;;;;16.02;100.00;63654.09;4821795;29;20229;-75
2023/09/11 06:03:59;;;;;;;8.27;3.00;;;;;;;16.20;100.00;63677.44;4826661;29;20250;-75
2023/09/11 06:06:27;;;;;;;5.82;3.30;;;;;;;16.28;100.00;63680.09;4815827;29;20237;-75
2023/09/11 06:08:54;;;;;;;10.07;4.35;;;;;;;16.30;100.00;63682.16;4818472;29;20244;-74
2023/09/11 06:11:21;;;;;;;9.82;3.65;;;;;;;16.35;100.00;63687.38;4814456;29;20473;-74
2023/09/11 06:13:49;;;;;;;8.75;3.90;;;;;;;16.53;100.00;63708.69;4813516;29;20424;-76
2023/09/11 06:16:16;;;;;;;6.95;3.40;;;;;;;16.75;100.00;63723.88;4806358;29;20230;-74
2023/09/11 06:18:42;;;;;;;8.63;3.33;;;;;;;16.63;98.57;63719.63;4816425;29;20209;-74
2023/09/11 06:21:09;;;;;;;3.92;3.45;;;;;;;16.68;99.30;63722.25;4819985;29;20258;-74
2023/09/11 06:23:38;;;;;;;7.40;3.50;;;;;;;16.75;99.39;63734.69;4817571;29;20254;-75
2023/09/11 06:26:05;;;;;;;9.30;3.88;;;;;;;16.93;98.70;63748.25;4811929;29;20240;-75
2023/09/11 06:28:32;;;;;;;13.32;3.95;;;;;;;17.05;98.10;63760.75;4806467;29;20217;-77
2023/09/11 06:30:59;;;;;;;6.20;3.65;;;;;;;17.16;96.16;63771.69;4808062;29;20229;-74
2023/09/11 06:33:27;;;;;;;10.90;3.90;;;;;;;17.31;95.85;63790.38;4817070;29;20217;-74
2023/09/11 06:35:54;;;;;;;10.20;3.83;;;;;;;17.34;94.02;63790.94;4808151;29;20258;-76
2023/09/11 06:38:21;;;;;;;10.68;3.63;;;;;;;17.52;93.03;63808.66;4818072;29;20258;-78
2023/09/11 06:40:49;;;;;;;8.65;3.85;;;;;;;17.60;92.01;63819.56;4812357;29;20237;-76
2023/09/11 06:43:16;;;;;;;7.22;3.63;;;;;;;17.54;90.49;63808.16;4812598;29;20286;-75
2023/09/11 06:45:43;;;;;;;5.07;3.58;;;;;;;17.62;91.38;63819.59;4817831;29;20246;-76
2023/09/11 06:48:12;;;;;;;8.68;3.70;;;;;;;17.82;89.82;63843.00;4821029;29;20285;-74
2023/09/11 06:50:39;;;;;;;7.82;3.83;;;;;;;17.88;89.10;63843.56;4817724;29;20452;-76
2023/09/11 06:53:08;;;;;;;8.88;4.15;;;;;;;17.92;88.79;63853.41;4818977;29;20396;-76
2023/09/11 06:55:35;;;;;;;5.82;3.22;;;;;;;18.04;87.40;63860.22;4819398;29;20225;-75
2023/09/11 06:58:04;;;;;;;4.40;3.58;;;;;;;18.30;86.06;63890.44;4816896;29;20358;-75
2023/09/11 07:00:31;;;;;;;7.35;4.25;;;;;;;18.48;84.33;63908.16;4816499;29;20233;-76
2023/09/11 07:02:58;;;;;;;6.72;3.55;;;;;;;18.58;85.88;63921.16;4820463;29;20220;-76
2023/09/11 07:05:26;;;;;;;5.80;4.03;;;;;;;18.62;83.21;63922.75;4819805;29;20457;-76
2023/09/11 07:07:53;;;;;;;8.93;3.72;;;;;;;18.61;82.17;63919.13;4817022;29;20213;-77
2023/09/11 07:10:20;;;;;;;4.40;3.70;;;;;;;18.72;81.59;63933.69;4818349;29;20249;-76
2023/09/11 07:12:47;;;;;;;12.23;3.63;;;;;;;18.76;82.38;63939.94;4823226;29;20211;-76
2023/09/11 07:15:16;;;;;;;7.45;3.28;;;;;;;18.90;79.44;63951.91;4820261;29;20225;-75
2023/09/11 07:17:43;;;;;;;5.20;3.45;;;;;;;18.90;80.19;63951.91;4812157;29;20254;-75
2023/09/11 07:20:12;;;;;;;9.65;3.95;;;;;;;18.92;81.04;63949.38;4813924;29;20543;-77
2023/09/11 07:22:39;;;;;;;5.70;3.40;;;;;;;19.04;78.88;63967.03;4814609;29;20209;-74
2023/09/11 07:25:11;;;;;;;3.78;3.47;;;;;;;19.08;77.07;63968.13;4816430;29;20272;-75
2023/09/11 07:27:39;;;;;;;4.32;3.55;;;;;;;19.11;77.05;63976.41;4818239;29;20209;-75
2023/09/11 07:30:08;;;;;;;4.70;3.35;;;;;;;19.27;76.80;63988.44;4826392;29;20236;-75
2023/09/11 07:32:37;;;;;;;4.80;3.50;;;;;;;19.44;75.26;64006.19;4817026;29;20217;-75
2023/09/11 07:35:05;;;;;;;8.55;3.80;;;;;;;19.60;71.85;64030.09;4810683;29;20253;-77
2023/09/11 07:37:32;;;;;;;5.53;3.22;;;;;;;19.83;68.54;64048.91;4807940;29;20458;-76
2023/09/11 07:39:58;;;;;;;4.63;3.58;;;;;;;19.75;68.76;64043.16;4804032;29;20254;-75
2023/09/11 07:42:26;;;;;;;7.65;3.83;;;;;;;20.06;68.64;64074.97;4814132;29;20238;-76
2023/09/11 07:44:53;;;;;;;4.50;3.38;;;;;;;20.28;67.54;64093.31;4806223;29;20291;-77
2023/09/11 07:47:20;;;;;;;5.45;3.53;;;;;;;20.41;65.24;64109.47;4807083;29;20251;-77
2023/09/11 07:49:48;;;;;;;4.30;3.33;;;;;;;20.32;64.36;64097.50;4805837;29;20347;-75
2023/09/11 07:52:15;;;;;;;7.82;3.35;;;;;;;20.33;61.93;64100.59;4804377;29;20206;-76
2023/09/11 07:54:43;;;;;;;5.80;4.22;;;;;;;20.51;62.50;64119.38;4804057;29;20237;-75
2023/09/11 07:57:12;;;;;;;7.25;3.55;;;;;;;20.68;62.92;64142.31;4806466;29;20658;-75
2023/09/11 07:59:39;;;;;;;5.55;3.28;;;;;;;20.78;60.41;64147.56;4806312;29;20887;-76
2023/09/11 08:02:07;;;;;;;3.05;2.83;;;;;;;20.97;60.63;64169.47;4813290;29;20205;-77
2023/09/11 08:04:35;;;;;;;6.05;3.38;;;;;;;21.13;56.19;64186.72;4807296;29;20218;-76
2023/09/11 08:07:04;;;;;;;4.03;3.17;;;;;;;21.21;56.74;64191.97;4807691;29;20277;-75
2023/09/11 08:09:31;;;;;;;3.95;3.50;;;;;;;21.35;54.31;64209.16;4806765;29;20245;-76
2023/09/11 08:12:00;;;;;;;4.63;3.35;;;;;;;21.38;50.72;64209.72;4807129;29;20206;-76
2023/09/11 08:14:27;;;;;;;3.08;2.80;;;;;;;21.36;50.72;64208.16;4805747;29;20213;-74
2023/09/11 08:16:54;;;;;;;5.43;3.08;;;;;;;21.38;51.65;64209.72;4812484;29;20487;-76
2023/09/11 08:19:21;;;;;;;4.93;3.15;;;;;;;21.46;50.25;64218.59;4807757;29;20236;-74
2023/09/11 08:21:48;;;;;;;3.03;2.80;;;;;;;21.52;52.64;64226.91;4809312;29;20262;-75
2023/09/11 08:24:16;;;;;;;5.88;2.88;;;;;;;21.43;51.25;64215.44;4805770;29;20278;-76
2023/09/11 08:26:43;;;;;;;5.50;2.92;;;;;;;21.50;51.01;64217.59;4808500;29;20233;-76
2023/09/11 08:29:10;;;;;;;4.60;3.10;;;;;;;21.30;50.79;64201.34;4808667;29;20507;-75
2023/09/11 08:31:38;;;;;;;3.25;3.03;;;;;;;21.43;51.45;64217.53;4815692;29;20570;-75
2023/09/11 08:34:05;;;;;;;8.68;3.28;;;;;;;21.59;53.51;64231.66;4809736;29;20217;-77
2023/09/11 08:36:33;;;;;;;8.60;3.05;;;;;;;21.87;53.19;64258.34;4806596;29;20248;-76
2023/09/11 08:39:00;;;;;;;9.73;2.75;;;;;;;22.00;51.18;64282.31;4806226;29;20206;-76
2023/09/11 08:41:30;;;;;;;5.47;2.95;;;;;;;22.04;50.11;64278.69;4808658;29;20343;-76
2023/09/11 08:43:57;;;;;;;2.95;2.17;;;;;;;22.18;49.57;64295.91;4812841;29;20217;-77
2023/09/11 08:46:27;;;;;;;4.75;2.88;;;;;;;22.23;49.10;64295.41;4816941;29;20553;-76
2023/09/11 08:48:55;;;;;;;4.13;3.63;;;;;;;22.42;50.17;64321.00;4817025;29;20454;-77
2023/09/11 08:51:25;;;;;;;3.72;2.88;;;;;;;22.53;48.95;64332.50;4811911;29;20241;-77
2023/09/11 08:53:55;;;;;;;3.15;2.85;;;;;;;22.40;47.98;64313.22;4811742;29;20218;-76
2023/09/11 08:56:23;;;;;;;4.25;2.80;;;;;;;22.59;48.24;64336.19;4807666;29;20291;-75
2023/09/11 08:58:54;;;;;;;4.97;2.70;;;;;;;22.60;48.42;64337.25;4807666;29;20261;-76
2023/09/11 09:01:22;;;;;;;4.45;3.50;;;;;;;22.64;47.23;64346.63;4820360;29;20235;-77
2023/09/11 09:03:50;;;;;;;4.45;2.97;;;;;;;22.48;47.87;64327.28;4812366;29;20210;-76
2023/09/11 09:06:18;;;;;;;3.38;2.90;;;;;;;22.60;47.99;64347.09;4809861;29;20225;-76
2023/09/11 09:08:45;;;;;;;3.03;2.83;;;;;;;22.74;46.75;64354.47;4808380;29;20685;-76
2023/09/11 09:11:13;;;;;;;3.20;2.92;;;;;;;22.96;47.26;64379.56;4811625;29;20252;-76
2023/09/11 09:13:40;;;;;;;3.83;3.30;;;;;;;23.18;46.01;64399.97;4810308;29;20521;-76
2023/09/11 09:16:09;;;;;;;4.35;2.90;;;;;;;23.32;46.31;64412.03;4812252;29;20266;-77
2023/09/11 09:18:36;;;;;;;8.00;2.97;;;;;;;23.48;46.37;64426.19;4815550;29;20218;-76
2023/09/11 09:21:05;;;;;;;3.55;3.05;;;;;;;23.66;44.33;64447.59;4810284;29;20225;-77
2023/09/11 09:23:35;;;;;;;3.03;2.72;;;;;;;23.21;43.57;64400.50;4812124;29;20217;-77
2023/09/11 09:26:05;;;;;;;4.25;2.95;;;;;;;23.39;43.84;64418.81;4809443;29;20233;-76
2023/09/11 09:28:33;;;;;;;3.75;3.00;;;;;;;23.39;44.15;64419.34;4817183;29;20244;-75
2023/09/11 09:31:00;;;;;;;3.50;3.20;;;;;;;23.56;43.84;64437.13;4812936;29;20301;-76
2023/09/11 09:33:28;;;;;;;3.53;2.97;;;;;;;23.68;43.21;64454.91;4807585;29;20214;-76
2023/09/11 09:35:56;;;;;;;10.85;3.38;;;;;;;23.50;43.49;64433.47;4813962;29;20248;-75
2023/09/11 09:38:23;;;;;;;5.30;3.25;;;;;;;23.24;44.71;64403.13;4814057;29;20210;-75
2023/09/11 09:40:51;;;;;;;5.50;3.13;;;;;;;23.28;44.78;64407.84;4810338;29;20730;-76
2023/09/11 09:43:19;;;;;;;6.40;2.95;;;;;;;23.56;45.43;64442.34;4814438;29;20378;-76
2023/09/11 09:45:47;;;;;;;8.43;3.63;;;;;;;23.67;44.88;64453.84;4810401;29;20283;-76
2023/09/11 09:48:15;;;;;;;5.25;2.65;;;;;;;23.86;43.78;64468.53;4813963;29;20273;-76
2023/09/11 09:51:01;;;;;;;4.18;3.15;;;;;;;23.69;43.17;64450.72;4810227;29;20542;-77
2023/09/11 09:53:30;;;;;;;3.80;2.60;;;;;;;23.66;42.56;64449.69;4813463;29;20221;-74
2023/09/11 09:55:59;;;;;;;13.80;11.23;;;;;;;23.79;43.83;64465.88;4813847;29;20245;-76
2023/09/11 09:58:28;;;;;;;4.63;4.13;;;;;;;24.01;43.02;64488.94;4811518;29;20303;-76
2023/09/11 10:01:00;;;;;;;4.85;2.95;;;;;;;24.14;42.51;64499.94;4810079;29;20237;-77
2023/09/11 10:03:28;;;;;;;3.05;2.33;;;;;;;23.92;41.37;64474.81;4813827;29;20214;-76
2023/09/11 10:05:57;;;;;;;6.32;2.88;;;;;;;23.87;41.06;64472.19;4809318;29;20263;-75
2023/09/11 10:08:24;;;;;;;3.00;2.80;;;;;;;24.04;41.52;64484.25;4809766;29;20246;-77
2023/09/11 10:10:50;;;;;;;5.30;3.15;;;;;;;24.14;41.32;64502.00;4806420;29;20267;-77
2023/09/11 10:13:17;;;;;;;5.07;2.85;;;;;;;24.29;42.52;64517.72;4816889;29;20296;-76
2023/09/11 10:15:45;;;;;;;2.92;2.63;;;;;;;24.42;42.65;64526.63;4809296;29;20226;-77
2023/09/11 10:18:13;;;;;;;2.58;2.38;;;;;;;24.58;42.61;64548.06;4810448;29;20229;-76
2023/09/11 10:20:40;;;;;;;3.17;2.33;;;;;;;24.69;40.54;64557.00;4807864;29;20253;-74
2023/09/11 10:23:09;;;;;;;4.25;2.42;;;;;;;24.83;40.48;64574.28;4812203;29;20581;-77
2023/09/11 10:25:40;;;;;;;3.65;2.88;;;;;;;24.92;39.75;64575.88;4806821;29;20226;-75
2023/09/11 10:28:08;;;;;;;3.67;2.53;;;;;;;25.00;41.06;64586.88;4810688;29;20213;-76
2023/09/11 10:30:43;;;;;;;4.05;2.45;;;;;;;24.82;40.69;64570.63;4818987;29;20237;-76
2023/09/11 10:33:17;;;;;;;3.17;2.92;;;;;;;24.61;38.98;64551.75;4813576;29;20385;-77
2023/09/11 10:35:48;;;;;;;3.58;2.70;;;;;;;24.49;39.32;64538.66;4808146;29;20224;-76
2023/09/11 10:38:17;;;;;;;6.65;2.60;;;;;;;24.61;39.87;64551.75;4809985;29;20246;-77
2023/09/11 10:40:45;;;;;;;3.03;2.65;;;;;;;24.62;39.59;64549.66;4809494;29;20240;-74
2023/09/11 10:43:13;;;;;;;4.32;2.45;;;;;;;24.46;40.02;64535.50;4810192;29;20255;-76
2023/09/11 10:45:41;;;;;;;6.07;3.00;;;;;;;24.51;41.70;64540.75;4806548;29;20234;-76
2023/09/11 10:48:26;;;;;;;3.58;3.28;;;;;;;24.80;41.15;64565.91;4814329;29;20212;-76
2023/09/11 10:50:55;;;;;;;7.47;3.08;;;;;;;25.03;41.37;64595.22;4808505;29;20273;-76
2023/09/11 10:53:26;;;;;;;2.95;2.55;;;;;;;25.15;41.24;64605.19;4808671;29;20221;-77
2023/09/11 10:55:55;;;;;;;3.38;3.08;;;;;;;25.31;40.56;64624.03;4806477;29;20287;-75
2023/09/11 10:58:23;;;;;;;4.82;2.47;;;;;;;25.31;38.13;64619.34;4808224;29;20206;-78
2023/09/11 11:00:54;;;;;;;5.28;2.40;;;;;;;24.98;37.60;64587.38;4807567;29;20245;-77
2023/09/11 11:03:22;;;;;;;3.15;2.63;;;;;;;25.08;37.38;64598.38;4809542;29;20250;-75
2023/09/11 11:05:49;;;;;;;5.47;2.85;;;;;;;25.04;37.64;64593.66;4807544;29;20432;-77
2023/09/11 11:08:16;;;;;;;3.42;2.45;;;;;;;25.21;38.44;64610.97;4809103;29;20205;-76
2023/09/11 11:10:48;;;;;;;2.67;2.45;;;;;;;25.31;38.49;64616.22;4812962;29;20264;-77
2023/09/11 11:13:15;;;;;;;7.20;2.22;;;;;;;25.47;39.10;64635.59;4804629;29;20274;-76
2023/09/11 11:15:43;;;;;;;2.78;2.58;;;;;;;25.52;37.93;64646.59;4808240;29;20335;-76
2023/09/11 11:18:11;;;;;;;2.72;2.58;;;;;;;25.58;38.64;64649.72;4812543;29;20214;-77
2023/09/11 11:20:59;;;;;;;3.80;3.03;;;;;;;25.61;37.00;64647.66;4809040;29;20651;-77
2023/09/11 11:23:26;;;;;;;2.90;2.70;;;;;;;25.66;35.77;64656.03;4810741;29;20214;-75
2023/09/11 11:25:55;;;;;;;4.53;2.28;;;;;;;25.43;36.50;64629.34;4808135;29;20229;-77
2023/09/11 11:28:24;;;;;;;3.13;2.47;;;;;;;25.34;36.34;64622.50;4810542;29;20259;-76
2023/09/11 11:30:53;;;;;;;5.22;2.83;;;;;;;25.53;38.07;64639.81;4810775;29;20249;-76
2023/09/11 11:33:24;;;;;;;3.03;2.70;;;;;;;25.73;38.18;64668.59;4807404;29;22909;-77